createdAt,value
2023-03-23T00:00:20.728Z,51.179253
2023-03-23T00:01:20.715Z,51.179276
2023-03-23T00:02:20.687Z,51.179287
2023-03-23T00:03:20.672Z,51.179237
2023-03-23T00:04:20.662Z,51.179237
2023-03-23T00:05:20.665Z,51.179222
2023-03-23T00:06:20.655Z,51.179253
2023-03-23T00:07:20.619Z,51.179264
2023-03-23T00:08:20.638Z,51.179214
2023-03-23T00:09:20.587Z,51.179237
2023-03-23T00:10:20.615Z,51.179237
2023-03-23T00:11:20.616Z,51.179264
2023-03-23T00:12:20.579Z,51.179256
2023-03-23T00:13:21.568Z,51.179253
2023-03-23T00:14:20.560Z,51.179249
2023-03-23T00:15:20.567Z,51.179264
2023-03-23T00:16:20.546Z,51.179283
2023-03-23T00:17:20.517Z,51.179256
2023-03-23T00:18:20.509Z,51.179245
2023-03-23T00:19:20.548Z,51.179234
2023-03-23T00:20:20.497Z,51.179230
2023-03-23T00:21:20.464Z,51.179234
2023-03-23T00:22:20.463Z,51.179237
2023-03-23T00:23:20.489Z,51.179241
2023-03-23T00:24:20.429Z,51.179222
2023-03-23T00:25:20.483Z,51.179211
2023-03-23T00:26:20.440Z,51.179192
2023-03-23T00:27:20.413Z,51.179142
2023-03-23T00:28:20.413Z,51.179146
2023-03-23T00:29:20.439Z,51.179214
2023-03-23T00:30:20.393Z,51.179165
2023-03-23T00:31:20.357Z,51.179134
2023-03-23T00:32:21.380Z,51.179150
2023-03-23T00:33:20.355Z,51.179153
2023-03-23T00:34:20.351Z,51.179180
2023-03-23T00:35:20.375Z,51.179234
2023-03-23T00:36:20.321Z,51.179207
2023-03-23T00:37:20.288Z,51.179176
2023-03-23T00:38:20.312Z,51.179108
2023-03-23T00:39:20.315Z,51.179195
2023-03-23T00:40:20.262Z,51.179142
2023-03-23T00:41:20.301Z,51.179111
2023-03-23T00:42:20.267Z,51.179119
2023-03-23T00:43:20.240Z,51.179146
2023-03-23T00:44:21.941Z,51.179184
2023-03-23T00:45:20.232Z,51.179161
2023-03-23T00:46:20.205Z,51.179131
2023-03-23T00:47:20.180Z,51.179207
2023-03-23T00:48:20.180Z,51.179234
2023-03-23T00:49:20.176Z,51.179245
2023-03-23T00:50:29.409Z,51.179241
2023-03-23T00:51:21.170Z,51.179203
2023-03-23T00:52:20.157Z,51.179176
2023-03-23T00:53:20.142Z,51.179180
2023-03-23T00:54:20.128Z,51.179192
2023-03-23T00:55:20.127Z,51.179214
2023-03-23T00:56:20.102Z,51.179268
2023-03-23T00:57:20.097Z,51.179230
2023-03-23T00:58:20.073Z,51.179203
2023-03-23T00:59:20.051Z,51.179180
2023-03-23T01:00:20.050Z,51.179169
2023-03-23T01:01:20.078Z,51.179157
2023-03-23T01:02:20.038Z,51.179180
2023-03-23T01:03:20.014Z,51.179195
2023-03-23T01:04:20.018Z,51.179184
2023-03-23T01:05:19.994Z,51.179207
2023-03-23T01:06:19.987Z,51.179203
2023-03-23T01:07:19.994Z,51.179226
2023-03-23T01:08:19.964Z,51.179192
2023-03-23T01:09:19.932Z,51.179180
2023-03-23T01:10:19.928Z,51.179214
2023-03-23T01:11:19.937Z,51.179211
2023-03-23T01:12:19.913Z,51.179230
2023-03-23T01:13:19.917Z,51.179245
2023-03-23T01:14:19.913Z,51.179287
2023-03-23T01:15:19.861Z,51.179245
2023-03-23T01:16:19.856Z,51.179245
2023-03-23T01:17:19.880Z,51.179256
2023-03-23T01:18:19.848Z,51.179249
2023-03-23T01:19:20.814Z,51.179230
2023-03-23T01:20:19.826Z,51.179214
2023-03-23T01:21:19.824Z,51.179245
2023-03-23T01:22:19.809Z,51.179245
2023-03-23T01:23:19.782Z,51.179195
2023-03-23T01:24:19.768Z,51.179214
2023-03-23T01:25:19.784Z,51.179237
2023-03-23T01:26:19.769Z,51.179249
2023-03-23T01:27:19.745Z,51.179264
2023-03-23T01:28:19.743Z,51.179256
2023-03-23T01:29:19.706Z,51.179226
2023-03-23T01:30:19.714Z,51.179260
2023-03-23T01:31:19.710Z,51.179260
2023-03-23T01:32:19.692Z,51.179203
2023-03-23T01:33:19.656Z,51.179214
2023-03-23T01:34:19.663Z,51.179192
2023-03-23T01:35:19.675Z,51.179214
2023-03-23T01:36:19.627Z,51.179184
2023-03-23T01:37:19.643Z,51.179134
2023-03-23T01:38:19.639Z,51.179142
2023-03-23T01:39:19.609Z,51.179176
2023-03-23T01:40:19.591Z,51.179253
2023-03-23T01:41:19.606Z,51.179234
2023-03-23T01:42:19.577Z,51.179226
2023-03-23T01:43:19.558Z,51.179234
2023-03-23T01:44:19.589Z,51.179207
2023-03-23T01:45:19.545Z,51.179165
2023-03-23T01:46:19.537Z,51.179173
2023-03-23T01:47:19.545Z,51.179195
2023-03-23T01:48:19.528Z,51.179161
2023-03-23T01:49:19.503Z,51.179268
2023-03-23T01:50:19.501Z,51.179256
2023-03-23T01:51:19.511Z,51.179234
2023-03-23T01:52:19.465Z,51.179207
2023-03-23T01:53:19.439Z,51.179245
2023-03-23T01:54:19.434Z,51.179184
2023-03-23T01:55:19.463Z,51.179180
2023-03-23T01:56:19.437Z,51.179195
2023-03-23T01:57:19.409Z,51.179222
2023-03-23T01:58:20.424Z,51.179222
2023-03-23T01:59:19.406Z,51.179207
2023-03-23T02:00:19.378Z,51.179192
2023-03-23T02:01:19.401Z,51.179192
2023-03-23T02:02:19.369Z,51.179195
2023-03-23T02:03:19.329Z,51.179218
2023-03-23T02:04:19.328Z,51.179245
2023-03-23T02:05:19.364Z,51.179230
2023-03-23T02:06:19.340Z,51.179230
2023-03-23T02:07:19.282Z,51.179203
2023-03-23T02:08:19.319Z,51.179226
2023-03-23T02:09:19.276Z,51.179214
2023-03-23T02:10:20.274Z,51.179218
2023-03-23T02:11:21.972Z,51.179192
2023-03-23T02:12:19.250Z,51.179203
2023-03-23T02:13:19.211Z,51.179211
2023-03-23T02:14:19.231Z,51.179211
2023-03-23T02:15:19.221Z,51.179195
2023-03-23T02:16:19.185Z,51.179203
2023-03-23T02:17:19.195Z,51.179203
2023-03-23T02:18:19.181Z,51.179192
2023-03-23T02:19:19.154Z,51.179180
2023-03-23T02:20:19.165Z,51.179184
2023-03-23T02:21:19.158Z,51.179199
2023-03-23T02:22:19.126Z,51.179188
2023-03-23T02:23:19.115Z,51.179184
2023-03-23T02:24:19.098Z,51.179176
2023-03-23T02:25:19.108Z,51.179195
2023-03-23T02:26:19.122Z,51.179192
2023-03-23T02:27:19.052Z,51.179173
2023-03-23T02:28:19.052Z,51.179195
2023-03-23T02:29:19.068Z,51.179203
2023-03-23T02:30:19.061Z,51.179211
2023-03-23T02:31:19.008Z,51.179165
2023-03-23T02:32:19.047Z,51.179104
2023-03-23T02:33:18.992Z,51.179146
2023-03-23T02:34:18.991Z,51.179195
2023-03-23T02:35:19.035Z,51.179207
2023-03-23T02:36:18.977Z,51.179207
2023-03-23T02:37:18.947Z,51.179199
2023-03-23T02:38:18.949Z,51.179230
2023-03-23T02:39:18.960Z,51.179253
2023-03-23T02:40:18.926Z,51.179249
2023-03-23T02:41:18.939Z,51.179241
2023-03-23T02:42:18.940Z,51.179230
2023-03-23T02:43:18.875Z,51.179276
2023-03-23T02:44:18.883Z,51.179272
2023-03-23T02:45:18.876Z,51.179253
2023-03-23T02:46:18.860Z,51.179253
2023-03-23T02:47:18.869Z,51.179256
2023-03-23T02:48:18.846Z,51.179256
2023-03-23T02:49:18.801Z,51.179249
2023-03-23T02:50:18.814Z,51.179222
2023-03-23T02:51:18.814Z,51.179211
2023-03-23T02:52:18.800Z,51.179195
2023-03-23T02:53:18.777Z,51.179169
2023-03-23T02:54:18.770Z,51.179184
2023-03-23T02:55:18.762Z,51.179207
2023-03-23T02:56:18.765Z,51.179234
2023-03-23T02:57:18.712Z,51.179241
2023-03-23T02:58:19.729Z,51.179253
2023-03-23T02:59:18.746Z,51.179234
2023-03-23T03:00:18.691Z,51.179237
2023-03-23T03:01:18.691Z,51.179230
2023-03-23T03:02:18.685Z,51.179192
2023-03-23T03:03:18.687Z,51.179180
2023-03-23T03:04:18.655Z,51.179222
2023-03-23T03:05:19.667Z,51.179230
2023-03-23T03:06:18.637Z,51.179226
2023-03-23T03:07:18.612Z,51.179218
2023-03-23T03:08:18.606Z,51.179256
2023-03-23T03:09:18.619Z,51.179256
2023-03-23T03:10:18.602Z,51.179256
2023-03-23T03:11:18.565Z,51.179230
2023-03-23T03:12:18.576Z,51.179245
2023-03-23T03:13:18.539Z,51.179241
2023-03-23T03:14:18.557Z,51.179256
2023-03-23T03:15:18.544Z,51.179245
2023-03-23T03:16:18.538Z,51.179249
2023-03-23T03:17:18.489Z,51.179249
2023-03-23T03:18:18.494Z,51.179218
2023-03-23T03:19:18.533Z,51.179195
2023-03-23T03:20:18.452Z,51.179317
2023-03-23T03:21:18.494Z,51.179287
2023-03-23T03:22:18.479Z,51.179222
2023-03-23T03:23:18.422Z,51.179234
2023-03-23T03:24:18.445Z,51.179260
2023-03-23T03:25:18.779Z,51.179241
2023-03-23T03:26:18.403Z,51.179214
2023-03-23T03:27:18.371Z,51.179283
2023-03-23T03:28:18.375Z,51.179302
2023-03-23T03:29:18.384Z,51.179264
2023-03-23T03:30:18.365Z,51.179226
2023-03-23T03:31:18.337Z,51.179226
2023-03-23T03:32:18.343Z,51.179256
2023-03-23T03:33:18.343Z,51.179241
2023-03-23T03:34:18.351Z,51.179256
2023-03-23T03:35:18.290Z,51.179249
2023-03-23T03:36:18.321Z,51.179272
2023-03-23T03:37:18.273Z,51.179264
2023-03-23T03:38:18.257Z,51.179226
2023-03-23T03:39:19.284Z,51.179253
2023-03-23T03:40:18.279Z,51.179298
2023-03-23T03:41:18.217Z,51.179317
2023-03-23T03:42:18.212Z,51.179333
2023-03-23T03:43:18.241Z,51.179279
2023-03-23T03:44:18.193Z,51.179310
2023-03-23T03:45:18.216Z,51.179314
2023-03-23T03:46:18.189Z,51.179314
2023-03-23T03:47:18.169Z,51.179279
2023-03-23T03:48:18.164Z,51.179302
2023-03-23T03:49:18.182Z,51.179306
2023-03-23T03:50:18.145Z,51.179268
2023-03-23T03:51:18.099Z,51.179256
2023-03-23T03:52:18.123Z,51.179237
2023-03-23T03:53:18.083Z,51.179256
2023-03-23T03:54:19.113Z,51.179256
2023-03-23T03:55:18.096Z,51.179256
2023-03-23T03:56:18.075Z,51.179207
2023-03-23T03:57:18.045Z,51.179241
2023-03-23T03:58:18.050Z,51.179272
2023-03-23T03:59:21.103Z,51.179195
2023-03-23T04:00:19.052Z,51.179256
2023-03-23T04:01:17.998Z,51.179260
2023-03-23T04:02:17.997Z,51.179276
2023-03-23T04:03:18.001Z,51.179279
2023-03-23T04:04:17.980Z,51.179264
2023-03-23T04:05:17.953Z,51.179234
2023-03-23T04:06:17.969Z,51.179207
2023-03-23T04:07:17.952Z,51.179249
2023-03-23T04:08:17.915Z,51.179295
2023-03-23T04:09:17.930Z,51.179253
2023-03-23T04:10:32.686Z,51.179253
2023-03-23T04:11:32.537Z,51.179264
2023-03-23T04:12:18.879Z,51.179256
2023-03-23T04:13:17.886Z,51.179256
2023-03-23T04:14:17.859Z,51.179268
2023-03-23T04:15:17.855Z,51.179234
2023-03-23T04:16:17.854Z,51.179230
2023-03-23T04:17:38.622Z,51.179237
2023-03-23T04:18:17.820Z,51.179237
2023-03-23T04:19:17.814Z,51.179211
2023-03-23T04:20:17.828Z,51.179218
2023-03-23T04:21:18.779Z,51.179176
2023-03-23T04:22:17.781Z,51.179214
2023-03-23T04:23:17.777Z,51.179222
2023-03-23T04:24:23.081Z,51.179234
2023-03-23T04:25:18.759Z,51.179237
2023-03-23T04:26:17.747Z,51.179237
2023-03-23T04:27:17.709Z,51.179260
2023-03-23T04:28:17.719Z,51.179237
2023-03-23T04:29:17.723Z,51.179237
2023-03-23T04:30:17.708Z,51.179291
2023-03-23T04:31:17.674Z,51.179256
2023-03-23T04:32:17.707Z,51.179218
2023-03-23T04:33:17.683Z,51.179199
2023-03-23T04:34:17.656Z,51.179218
2023-03-23T04:35:17.642Z,51.179237
2023-03-23T04:36:17.650Z,51.179245
2023-03-23T04:37:17.632Z,51.179237
2023-03-23T04:38:17.629Z,51.179226
2023-03-23T04:39:17.590Z,51.179222
2023-03-23T04:40:17.591Z,51.179195
2023-03-23T04:41:17.574Z,51.179169
2023-03-23T04:42:17.570Z,51.179184
2023-03-23T04:43:17.557Z,51.179199
2023-03-23T04:44:17.581Z,51.179192
2023-03-23T04:45:17.502Z,51.179184
2023-03-23T04:46:17.512Z,51.179188
2023-03-23T04:47:17.519Z,51.179214
2023-03-23T04:48:17.488Z,51.179264
2023-03-23T04:49:17.502Z,51.179253
2023-03-23T04:50:17.457Z,51.179226
2023-03-23T04:51:17.453Z,51.179214
2023-03-23T04:52:17.430Z,51.179226
2023-03-23T04:53:17.437Z,51.179226
2023-03-23T04:54:17.433Z,51.179230
2023-03-23T04:55:17.393Z,51.179253
2023-03-23T04:56:17.418Z,51.179253
2023-03-23T04:57:17.378Z,51.179256
2023-03-23T04:58:18.363Z,51.179260
2023-03-23T04:59:17.382Z,51.179241
2023-03-23T05:00:17.382Z,51.179249
2023-03-23T05:01:17.315Z,51.179245
2023-03-23T05:02:17.331Z,51.179241
2023-03-23T05:03:17.373Z,51.179256
2023-03-23T05:04:17.264Z,51.179264
2023-03-23T05:05:17.321Z,51.179291
2023-03-23T05:06:17.285Z,51.179268
2023-03-23T05:07:17.245Z,51.179214
2023-03-23T05:08:17.248Z,51.179211
2023-03-23T05:09:17.286Z,51.179253
2023-03-23T05:10:17.246Z,51.179256
2023-03-23T05:11:18.216Z,51.179268
2023-03-23T05:12:17.241Z,51.179268
2023-03-23T05:13:17.192Z,51.179283
2023-03-23T05:14:17.201Z,51.179268
2023-03-23T05:15:17.206Z,51.179272
2023-03-23T05:16:17.190Z,51.179260
2023-03-23T05:17:17.153Z,51.179222
2023-03-23T05:18:17.152Z,51.179184
2023-03-23T05:19:17.163Z,51.179203
2023-03-23T05:20:17.109Z,51.179234
2023-03-23T05:21:17.140Z,51.179256
2023-03-23T05:22:17.110Z,51.179272
2023-03-23T05:23:17.097Z,51.179268
2023-03-23T05:24:17.116Z,51.179264
2023-03-23T05:25:17.089Z,51.179245
2023-03-23T05:26:17.072Z,51.179222
2023-03-23T05:27:17.035Z,51.179234
2023-03-23T05:28:17.054Z,51.179264
2023-03-23T05:29:17.018Z,51.179272
2023-03-23T05:30:17.028Z,51.179256
2023-03-23T05:31:17.022Z,51.179241
2023-03-23T05:32:16.996Z,51.179256
2023-03-23T05:33:16.974Z,51.179302
2023-03-23T05:34:16.994Z,51.179325
2023-03-23T05:35:16.971Z,51.179279
2023-03-23T05:36:17.003Z,51.179302
2023-03-23T05:37:16.921Z,51.179321
2023-03-23T05:38:16.927Z,51.179329
2023-03-23T05:39:16.971Z,51.179325
2023-03-23T05:40:16.892Z,51.179337
2023-03-23T05:41:16.989Z,51.179340
2023-03-23T05:42:16.882Z,51.179321
2023-03-23T05:43:16.875Z,51.179298
2023-03-23T05:44:16.846Z,51.179268
2023-03-23T05:45:16.875Z,51.179253
2023-03-23T05:46:16.843Z,51.179291
2023-03-23T05:47:16.804Z,51.179279
2023-03-23T05:48:16.818Z,51.179317
2023-03-23T05:49:16.823Z,51.179337
2023-03-23T05:50:16.803Z,51.179279
2023-03-23T05:51:16.768Z,51.179234
2023-03-23T05:52:16.784Z,51.179272
2023-03-23T05:53:16.734Z,51.179283
2023-03-23T05:54:16.737Z,51.179306
2023-03-23T05:55:16.783Z,51.179306
2023-03-23T05:56:16.713Z,51.179298
2023-03-23T05:57:16.691Z,51.179291
2023-03-23T05:58:16.709Z,51.179253
2023-03-23T05:59:16.695Z,51.179279
2023-03-23T06:00:16.662Z,51.179325
2023-03-23T06:01:17.738Z,51.179340
2023-03-23T06:02:16.665Z,51.179291
2023-03-23T06:03:16.638Z,51.179237
2023-03-23T06:04:16.626Z,51.179264
2023-03-23T06:05:16.645Z,51.179268
2023-03-23T06:06:16.628Z,51.179272
2023-03-23T06:07:16.579Z,51.179279
2023-03-23T06:08:16.598Z,51.179283
2023-03-23T06:09:16.604Z,51.179310
2023-03-23T06:10:16.560Z,51.179291
2023-03-23T06:11:16.544Z,51.179272
2023-03-23T06:12:16.546Z,51.179245
2023-03-23T06:13:16.545Z,51.179237
2023-03-23T06:14:16.527Z,51.179245
2023-03-23T06:15:16.518Z,51.179272
2023-03-23T06:16:16.531Z,51.179230
2023-03-23T06:17:16.467Z,51.179241
2023-03-23T06:18:16.484Z,51.179264
2023-03-23T06:19:16.500Z,51.179253
2023-03-23T06:20:16.476Z,51.179302
2023-03-23T06:21:18.440Z,51.179287
2023-03-23T06:22:16.445Z,51.179260
2023-03-23T06:23:16.444Z,51.179264
2023-03-23T06:24:16.418Z,51.179230
2023-03-23T06:25:16.423Z,51.179256
2023-03-23T06:26:16.429Z,51.179253
2023-03-23T06:27:17.119Z,51.179276
2023-03-23T06:28:17.369Z,51.179241
2023-03-23T06:29:16.380Z,51.179211
2023-03-23T06:30:16.381Z,51.179222
2023-03-23T06:31:16.340Z,51.179268
2023-03-23T06:32:16.345Z,51.179256
2023-03-23T06:33:16.313Z,51.179237
2023-03-23T06:34:16.303Z,51.179230
2023-03-23T06:35:16.308Z,51.179295
2023-03-23T06:36:16.365Z,51.179268
2023-03-23T06:37:16.251Z,51.179264
2023-03-23T06:38:17.260Z,51.179237
2023-03-23T06:39:16.285Z,51.179226
2023-03-23T06:40:16.241Z,51.179222
2023-03-23T06:41:16.220Z,51.179226
2023-03-23T06:42:16.237Z,51.179298
2023-03-23T06:43:16.211Z,51.179306
2023-03-23T06:44:16.189Z,51.179249
2023-03-23T06:45:16.183Z,51.179214
2023-03-23T06:46:16.179Z,51.179218
2023-03-23T06:47:16.178Z,51.179222
2023-03-23T06:48:16.153Z,51.179230
2023-03-23T06:49:16.145Z,51.179237
2023-03-23T06:50:16.130Z,51.179241
2023-03-23T06:51:16.114Z,51.179226
2023-03-23T06:52:16.097Z,51.179241
2023-03-23T06:53:16.128Z,51.179237
2023-03-23T06:54:16.098Z,51.179249
2023-03-23T06:55:16.071Z,51.179237
2023-03-23T06:56:16.087Z,51.179222
2023-03-23T06:57:16.028Z,51.179211
2023-03-23T06:58:16.049Z,51.179249
2023-03-23T06:59:16.037Z,51.179234
2023-03-23T07:00:16.014Z,51.179237
2023-03-23T07:01:16.048Z,51.179256
2023-03-23T07:02:15.981Z,51.179260
2023-03-23T07:03:15.991Z,51.179253
2023-03-23T07:04:15.977Z,51.179249
2023-03-23T07:05:15.983Z,51.179245
2023-03-23T07:06:15.947Z,51.179222
2023-03-23T07:07:15.930Z,51.179218
2023-03-23T07:08:15.938Z,51.179253
2023-03-23T07:09:15.926Z,51.179279
2023-03-23T07:10:15.922Z,51.179268
2023-03-23T07:11:15.873Z,51.179260
2023-03-23T07:12:15.890Z,51.179264
2023-03-23T07:13:15.898Z,51.179245
2023-03-23T07:14:15.861Z,51.179203
2023-03-23T07:15:15.833Z,51.179192
2023-03-23T07:16:16.160Z,51.179203
2023-03-23T07:17:15.831Z,51.179218
2023-03-23T07:18:15.811Z,51.179245
2023-03-23T07:19:15.789Z,51.179237
2023-03-23T07:20:15.812Z,51.179249
2023-03-23T07:21:15.765Z,51.179276
2023-03-23T07:22:15.760Z,51.179264
2023-03-23T07:23:15.781Z,51.179256
2023-03-23T07:24:15.759Z,51.179230
2023-03-23T07:25:15.720Z,51.179222
2023-03-23T07:26:15.721Z,51.179192
2023-03-23T07:27:15.730Z,51.179180
2023-03-23T07:28:15.680Z,51.179188
2023-03-23T07:29:15.705Z,51.179199
2023-03-23T07:30:15.675Z,51.179207
2023-03-23T07:31:15.661Z,51.179195
2023-03-23T07:32:15.664Z,51.179184
2023-03-23T07:33:15.655Z,51.179195
2023-03-23T07:34:15.637Z,51.179230
2023-03-23T07:35:15.645Z,51.179207
2023-03-23T07:36:15.654Z,51.179188
2023-03-23T07:37:15.570Z,51.179195
2023-03-23T07:38:15.592Z,51.179176
2023-03-23T07:39:15.630Z,51.179173
2023-03-23T07:40:15.581Z,51.179192
2023-03-23T07:41:15.541Z,51.179222
2023-03-23T07:42:15.545Z,51.179207
2023-03-23T07:43:15.543Z,51.179180
2023-03-23T07:44:15.519Z,51.179184
2023-03-23T07:45:15.494Z,51.179211
2023-03-23T07:46:15.489Z,51.179192
2023-03-23T07:47:15.491Z,51.179249
2023-03-23T07:48:21.129Z,51.179245
2023-03-23T07:49:17.464Z,51.179283
2023-03-23T07:50:15.445Z,51.179268
2023-03-23T07:51:15.450Z,51.179260
2023-03-23T07:52:15.426Z,51.179256
2023-03-23T07:53:15.430Z,51.179249
2023-03-23T07:54:15.414Z,51.179253
2023-03-23T07:55:15.386Z,51.179169
2023-03-23T07:56:15.374Z,51.179230
2023-03-23T07:57:15.389Z,51.179214
2023-03-23T07:58:15.505Z,51.179230
2023-03-23T07:59:15.326Z,51.179268
2023-03-23T08:00:15.357Z,51.179268
2023-03-23T08:01:15.318Z,51.179276
2023-03-23T08:02:15.320Z,51.179245
2023-03-23T08:03:15.310Z,51.179218
2023-03-23T08:04:15.326Z,51.179165
2023-03-23T08:05:15.260Z,51.179138
2023-03-23T08:06:15.270Z,51.179146
2023-03-23T08:07:15.285Z,51.179146
2023-03-23T08:08:15.243Z,51.179188
2023-03-23T08:09:15.265Z,51.179218
2023-03-23T08:10:15.244Z,51.179237
2023-03-23T08:11:15.188Z,51.179230
2023-03-23T08:12:15.190Z,51.179241
2023-03-23T08:13:15.227Z,51.179256
2023-03-23T08:14:18.747Z,51.179264
2023-03-23T08:15:17.153Z,51.179260
2023-03-23T08:16:15.337Z,51.179241
2023-03-23T08:17:15.160Z,51.179214
2023-03-23T08:18:15.147Z,51.179195
2023-03-23T08:19:15.155Z,51.179195
2023-03-23T08:20:15.107Z,51.179207
2023-03-23T08:21:15.118Z,51.179199
2023-03-23T08:22:15.096Z,51.179218
2023-03-23T08:23:15.080Z,51.179199
2023-03-23T08:24:15.088Z,51.179214
2023-03-23T08:25:15.044Z,51.179241
2023-03-23T08:26:15.069Z,51.179203
2023-03-23T08:27:15.077Z,51.179234
2023-03-23T08:28:15.060Z,51.179218
2023-03-23T08:29:14.999Z,51.179192
2023-03-23T08:30:15.005Z,51.179192
2023-03-23T08:31:15.041Z,51.179184
2023-03-23T08:32:14.965Z,51.179184
2023-03-23T08:33:14.990Z,51.179188
2023-03-23T08:34:15.001Z,51.179203
2023-03-23T08:35:14.956Z,51.179241
2023-03-23T08:36:15.027Z,51.179253
2023-03-23T08:37:14.941Z,51.179222
2023-03-23T08:38:14.932Z,51.179214
2023-03-23T08:39:14.899Z,51.179245
2023-03-23T08:40:17.068Z,51.179276
2023-03-23T08:41:14.865Z,51.179253
2023-03-23T08:42:14.859Z,51.179276
2023-03-23T08:43:14.888Z,51.179287
2023-03-23T08:44:14.858Z,51.179260
2023-03-23T08:45:14.814Z,51.179272
2023-03-23T08:46:14.813Z,51.179253
2023-03-23T08:47:14.849Z,51.179245
2023-03-23T08:48:14.793Z,51.179241
2023-03-23T08:49:14.784Z,51.179199
2023-03-23T08:50:14.791Z,51.179176
2023-03-23T08:51:14.785Z,51.179138
2023-03-23T08:52:15.782Z,51.179161
2023-03-23T08:53:14.782Z,51.179173
2023-03-23T08:54:14.740Z,51.179188
2023-03-23T08:55:14.736Z,51.179222
2023-03-23T08:56:14.712Z,51.179214
2023-03-23T08:57:14.729Z,51.179192
2023-03-23T08:58:14.687Z,51.179211
2023-03-23T08:59:14.693Z,51.179173
2023-03-23T09:00:14.674Z,51.179237
2023-03-23T09:01:14.700Z,51.179234
2023-03-23T09:02:14.641Z,51.179214
2023-03-23T09:03:14.610Z,51.179230
2023-03-23T09:04:14.657Z,51.179241
2023-03-23T09:05:14.615Z,51.179264
2023-03-23T09:06:14.598Z,51.179260
2023-03-23T09:07:14.599Z,51.179264
2023-03-23T09:08:14.602Z,51.179249
2023-03-23T09:09:14.563Z,51.179237
2023-03-23T09:10:14.557Z,51.179203
2023-03-23T09:11:14.562Z,51.179195
2023-03-23T09:12:14.518Z,51.179260
2023-03-23T09:13:14.536Z,51.179268
2023-03-23T09:14:15.548Z,51.179298
2023-03-23T09:15:16.624Z,51.179291
2023-03-23T09:16:14.486Z,51.179260
2023-03-23T09:17:14.504Z,51.179214
2023-03-23T09:18:14.473Z,51.179237
2023-03-23T09:19:14.459Z,51.179272
2023-03-23T09:20:14.471Z,51.179287
2023-03-23T09:21:19.028Z,51.179298
2023-03-23T09:22:14.420Z,51.179268
2023-03-23T09:23:14.436Z,51.179279
2023-03-23T09:24:14.413Z,51.179253
2023-03-23T09:25:14.493Z,51.179245
2023-03-23T09:26:14.392Z,51.179234
2023-03-23T09:27:14.384Z,51.179234
2023-03-23T09:28:14.347Z,51.179222
2023-03-23T09:29:14.381Z,51.179245
2023-03-23T09:30:14.336Z,51.179253
2023-03-23T09:31:14.330Z,51.179222
2023-03-23T09:32:14.329Z,51.179222
2023-03-23T09:33:14.341Z,51.179260
2023-03-23T09:34:14.296Z,51.179260
2023-03-23T09:35:14.278Z,51.179184
2023-03-23T09:36:14.316Z,51.179188
2023-03-23T09:37:14.240Z,51.179249
2023-03-23T09:38:14.249Z,51.179272
2023-03-23T09:39:14.246Z,51.179268
2023-03-23T09:40:14.234Z,51.179237
2023-03-23T09:41:14.238Z,51.179222
2023-03-23T09:42:14.203Z,51.179188
2023-03-23T09:43:14.225Z,51.179207
2023-03-23T09:44:14.214Z,51.179226
2023-03-23T09:45:14.187Z,51.179230
2023-03-23T09:46:14.184Z,51.179226
2023-03-23T09:47:14.161Z,51.179256
2023-03-23T09:48:14.143Z,51.179256
2023-03-23T09:49:14.149Z,51.179222
2023-03-23T09:50:14.115Z,51.179218
2023-03-23T09:51:14.096Z,51.179230
2023-03-23T09:52:14.097Z,51.179234
2023-03-23T09:53:14.099Z,51.179249
2023-03-23T09:54:14.063Z,51.179237
2023-03-23T09:55:14.054Z,51.179226
2023-03-23T09:56:14.067Z,51.179192
2023-03-23T09:57:14.046Z,51.179214
2023-03-23T09:58:14.037Z,51.179253
2023-03-23T09:59:13.997Z,51.179272
2023-03-23T10:00:14.025Z,51.179298
2023-03-23T10:01:13.988Z,51.179306
2023-03-23T10:02:13.975Z,51.179279
2023-03-23T10:03:14.021Z,51.179264
2023-03-23T10:04:13.957Z,51.179256
2023-03-23T10:05:13.938Z,51.179245
2023-03-23T10:06:13.942Z,51.179222
2023-03-23T10:07:13.933Z,51.179268
2023-03-23T10:08:13.911Z,51.179268
2023-03-23T10:09:13.937Z,51.179241
2023-03-23T10:10:13.893Z,51.179230
2023-03-23T10:11:13.858Z,51.179249
2023-03-23T10:12:13.879Z,51.179226
2023-03-23T10:13:13.904Z,51.179234
2023-03-23T10:14:13.853Z,51.179245
2023-03-23T10:15:13.837Z,51.179241
2023-03-23T10:16:13.841Z,51.179222
2023-03-23T10:17:13.836Z,51.179184
2023-03-23T10:18:13.824Z,51.179176
2023-03-23T10:19:14.814Z,51.179211
2023-03-23T10:20:13.777Z,51.179230
2023-03-23T10:21:13.776Z,51.179249
2023-03-23T10:22:13.753Z,51.179237
2023-03-23T10:23:13.757Z,51.179226
2023-03-23T10:24:13.763Z,51.179241
2023-03-23T10:25:13.701Z,51.179256
2023-03-23T10:26:13.705Z,51.179245
2023-03-23T10:27:13.735Z,51.179241
2023-03-23T10:28:13.694Z,51.179268
2023-03-23T10:29:13.691Z,51.179291
2023-03-23T10:30:13.672Z,51.179283
2023-03-23T10:31:13.676Z,51.179287
2023-03-23T10:32:14.135Z,51.179306
2023-03-23T10:33:13.693Z,51.179340
2023-03-23T10:34:13.630Z,51.179272
2023-03-23T10:35:13.600Z,51.179184
2023-03-23T10:36:13.638Z,51.179184
2023-03-23T10:37:13.609Z,51.179218
2023-03-23T10:38:13.597Z,51.179214
2023-03-23T10:39:13.576Z,51.179226
2023-03-23T10:40:13.587Z,51.179226
2023-03-23T10:41:14.579Z,51.179245
2023-03-23T10:42:13.537Z,51.179218
2023-03-23T10:43:13.565Z,51.179222
2023-03-23T10:44:13.528Z,51.179272
2023-03-23T10:45:13.531Z,51.179283
2023-03-23T10:46:23.012Z,51.179295
2023-03-23T10:47:15.506Z,51.179268
2023-03-23T10:48:13.508Z,51.179260
2023-03-23T10:49:13.497Z,51.179249
2023-03-23T10:50:13.477Z,51.179276
2023-03-23T10:51:13.455Z,51.179283
2023-03-23T10:52:13.434Z,51.179245
2023-03-23T10:53:13.452Z,51.179214
2023-03-23T10:54:13.414Z,51.179245
2023-03-23T10:55:13.402Z,51.179268
2023-03-23T10:56:13.388Z,51.179264
2023-03-23T10:57:13.413Z,51.179272
2023-03-23T10:58:13.381Z,51.179260
2023-03-23T10:59:13.339Z,51.179253
2023-03-23T11:00:13.350Z,51.179211
2023-03-23T11:01:13.381Z,51.179195
2023-03-23T11:02:24.119Z,51.179253
2023-03-23T11:03:15.316Z,51.179249
2023-03-23T11:04:13.354Z,51.179268
2023-03-23T11:05:20.007Z,51.179256
2023-03-23T11:06:15.279Z,51.179230
2023-03-23T11:07:13.298Z,51.179230
2023-03-23T11:08:13.267Z,51.179214
2023-03-23T11:09:13.239Z,51.179188
2023-03-23T11:10:13.266Z,51.179203
2023-03-23T11:11:13.249Z,51.179234
2023-03-23T11:12:13.205Z,51.179276
2023-03-23T11:13:13.236Z,51.179295
2023-03-23T11:14:13.197Z,51.179268
2023-03-23T11:15:13.182Z,51.179241
2023-03-23T11:16:13.193Z,51.179241
2023-03-23T11:17:15.833Z,51.179264
2023-03-23T11:18:14.178Z,51.179279
2023-03-23T11:19:13.156Z,51.179256
2023-03-23T11:20:13.167Z,51.179241
2023-03-23T11:21:13.100Z,51.179237
2023-03-23T11:22:13.114Z,51.179264
2023-03-23T11:23:13.130Z,51.179264
2023-03-23T11:24:13.110Z,51.179237